<<    Februar 2012    >>
Datum    Temp.       Tempmin      Tempmax    Taup.       Taup.min      Taup.max    Feuchte    Feuchtemin    Feuchtemax    Druck    Druckmin    Druckmax    Regen    Wind    Benmax  
  01.02.2012  -4,7    -8,1    07:42    0,3    14:20  -14,5    -18,3    21:51    -12,1    09:43  47,7    31    15:17    66    08:05  1030,5    1028    00:00    1033    23:01  0,0  4,5  17,6  
  02.02.2012  -6,8    -10,3    06:37    -2,6    13:54  -17,5    -19,4    23:45    -15,2    12:30  42,6    35    14:58    51    06:11  1033,4    1031    13:31    1035    23:59  0,0  3,7  20,5  
  03.02.2012  -8,5    -12,8    06:47    -2,9    14:03  -17,2    -21,7    06:47    -13,5    12:47  49,3    43    13:49    64    23:59  1036,9    1035    00:00    1039    21:47  0,0  1,0  10,4  
  04.02.2012  -8,2    -12,4    08:24    -3,7    14:55  -14,7    -17,2    08:24    -10,4    11:34  60,1    45    14:15    76    09:42  1038,4    1035    20:31    1041    09:01  0,0  0,9  10,1  
  05.02.2012  -6,7    -9,4    00:01    -2,9    15:16  -16,1    -17,9    20:13    -14,1    00:55  48,2    35    15:21    65    00:29  1033,3    1031    15:00    1035    00:00  0,0  3,3  14,0  
  06.02.2012  -7,2    -9,9    07:51    -3,6    15:23  -17,4    -18,8    07:51    -15,1    13:11  44,0    37    15:25    52    09:03  1035,2    1033    17:00    1036    23:59  0,0  1,9  13,7  
  07.02.2012  -8,6    -14,4    07:15    -4,3    14:38  -17,9    -23,7    07:15    -14,0    23:35  46,8    43    11:39    55    23:35  1038,4    1036    00:00    1039    02:31  0,0  3,3  20,9  
  08.02.2012  -3,9    -6,9    23:56    0,3    15:15  -12,5    -14,3    23:48    -11,1    14:25  51,3    42    14:03    59    01:36  1037,7    1035    16:00    1039    01:31  0,0  3,3  13,7  
  09.02.2012  -6,0    -10,6    06:39    -1,7    16:03  -10,1    -15,3    02:38    -4,4    16:03  72,6    56    00:00    83    15:32  1037,0    1035    13:30    1039    02:00  0,0  1,6  14,0  
  10.02.2012  -3,9    -7,5    00:00    0,4    15:14  -10,9    -15,7    23:58    -7,6    10:32  59,9    41    14:25    81    00:46  1038,3    1036    16:14    1040    00:44  0,0  2,2  13,7  
  11.02.2012  -6,6    -11,5    07:46    -1,4    15:11  -15,4    -19,1    07:46    -12,6    15:11  49,7    41    15:00    59    23:27  1036,0    1033    15:00    1039    10:59  0,0  2,1  15,8  
  12.02.2012  -5,6    -10,7    07:42    -1,3    15:32  -12,2    -16,0    00:31    -9,4    23:59  59,9    50    15:44    73    08:51  1032,6    1029    20:00    1035    00:14  0,0  0,9  7,6  
  13.02.2012  0,2    -2,6    00:13    2,7    15:29  -2,2    -9,4    00:00    1,1    13:12  84,5    59    00:00    98    23:00  1023,2    1016    23:59    1031    00:00  0,9  1,2  12,2  
  14.02.2012  2,8    0,8    00:00    5,9    14:30  1,7    0,2    16:32    4,7    12:40  93,2    72    14:27    98    00:00  1017,0    1014    23:28    1019    11:13  2,7  3,0  18,0  
  15.02.2012  4,5    2,8    22:06    6,0    14:53  2,2    0,3    20:22    4,9    04:14  85,7    68    15:01    98    00:00  1014,1    1010    04:13    1022    23:58  1,0  8,4  30,2  
  16.02.2012  4,3    1,5    04:50    7,4    15:29  3,5    0,2    01:55    6,8    14:43  94,4    86    00:00    98    09:15  1024,5    1021    00:28    1026    08:58  0,9  2,3  12,2  
  17.02.2012  5,5    4,3    01:06    6,9    15:35  5,0    3,6    01:06    6,6    15:35  97,0    91    05:03    98    06:52  1022,9    1021    20:43    1026    00:13  3,0  2,6  20,5  
  18.02.2012  7,1    4,5    01:08    9,4    12:33  5,8    4,2    01:08    8,1    12:10  92,0    77    13:57    98    00:00  1015,8    1008    23:27    1022    00:00  0,0  2,1  13,7  
  19.02.2012  3,6    0,3    23:59    8,0    00:00  0,9    -2,9    14:27    5,7    00:47  83,2    54    14:51    97    03:37  1019,4    1008    00:00    1032    23:57  1,8  5,0  20,9  
  20.02.2012  1,0    -2,1    07:13    5,8    15:11  -1,7    -4,2    19:38    1,7    10:59  83,4    57    15:42    98    05:20  1034,9    1032    00:00    1037    11:57  0,0  0,9  10,1  
  21.02.2012  4,4    -0,2    01:11    9,6    14:16  -1,7    -3,9    01:11    1,0    14:16  65,1    53    12:35    78    23:47  1032,0    1030    15:43    1035    00:12  0,0  2,1  17,6  
  22.02.2012  5,5    0,4    04:39    11,4    14:58  -0,8    -2,3    23:42    1,3    10:20  65,7    42    15:01    88    05:15  1029,3    1023    22:41    1033    03:27  0,0  1,5  11,9  
  23.02.2012  8,6    5,8    03:00    10,8    16:51  5,9    -2,3    00:08    8,3    16:44  83,2    54    00:08    95    09:05  1023,7    1021    03:56    1027    22:42  0,0  2,6  16,6  
  24.02.2012  10,2    8,8    02:57    11,8    15:13  8,9    6,5    02:36    9,8    08:46  91,8    85    00:00    98    06:02  1025,9    1025    00:11    1027    10:56  0,9  3,7  24,5  
  25.02.2012  8,1    6,1    07:00    10,9    13:14  4,9    1,4    22:12    9,2    00:00  82,0    56    14:44    98    00:00  1025,4    1023    17:26    1027    00:00  0,0  3,6  18,4  
  26.02.2012  5,7    3,3    23:23    7,8    14:06  4,1    1,5    00:07    6,5    13:29  89,6    73    00:00    98    23:59  1027,2    1024    05:55    1030    21:11  0,9  2,5  16,2  
  27.02.2012  7,3    2,6    04:24    11,4    14:33  3,8    0,5    14:45    6,1    23:59  80,8    48    14:43    98    00:00  1027,2    1024    17:40    1030    00:00  0,0  1,5  13,0  
  28.02.2012  9,2    7,8    03:42    10,6    16:16  8,0    6,1    00:00    9,3    23:59  92,4    86    00:00    98    23:59  1024,7    1023    07:40    1026    01:10  0,0  2,2  13,7  
  29.02.2012  11,3    9,5    05:00    14,0    15:48  9,9    9,2    05:00    11,7    11:04  91,8    78    15:27    98    00:00  1025,6    1024    16:40    1027    03:25  0,0  1,0  10,4  
 
  Gesamt  0,8  -14,4            14,0            -4,1  -23,7            11,7            72,0  31            98            1029,0  1008            1041            12,1  2,6  30,2  
 
  Mittelwert  0,8  -2,4            4,4            -4,1  -7,2            -1,3            72,0  56,5            83,3            1029,0  1025,7            1032,0            0,4  2,6  15,6  
  Minimum  -8,6  -14,4            -4,3            -17,9  -23,7            -15,2            42,6  31,0            51,0            1014,1  1008,0            1019,0            0,0  0,9  7,6  
  Maximum  11,3  9,5            14,0            9,9  9,2            11,7            97,0  91,0            98,0            1038,4  1036,0            1041,0            3,0  8,4  30,2  

  Heie Tage    Tmax >=30C     0  
  Sommertage    Tmax >=25C     0  
  Warme Tage    Tmax >=20C     0  
  Kalte Tage    Tmax  <10C     22  
  Frosttage    Tmin  <0C     15  
  Eistage    Tmax  <0C     9  
  Regentage > 0 mm    8  
  Regentage > 2 mm    2  
  Regentage > 10 mm    0  
  Regentage > 20 mm    0